sensor_id;sensor_type;location;lat;lon;timestamp;P1;durP1;ratioP1;P2;durP2;ratioP2
16665;SDS011;8446;50.998;6.250;2023-04-06T00:00:01;17.00;;;9.40;;
16665;SDS011;8446;50.998;6.250;2023-04-06T00:02:29;18.17;;;9.73;;
16665;SDS011;8446;50.998;6.250;2023-04-06T00:04:56;22.58;;;10.52;;
16665;SDS011;8446;50.998;6.250;2023-04-06T00:07:23;19.50;;;10.48;;
16665;SDS011;8446;50.998;6.250;2023-04-06T00:09:50;17.17;;;9.68;;
16665;SDS011;8446;50.998;6.250;2023-04-06T00:12:18;19.17;;;9.50;;
16665;SDS011;8446;50.998;6.250;2023-04-06T00:14:45;18.75;;;8.75;;
16665;SDS011;8446;50.998;6.250;2023-04-06T00:17:12;18.17;;;10.30;;
16665;SDS011;8446;50.998;6.250;2023-04-06T00:19:38;16.98;;;9.20;;
16665;SDS011;8446;50.998;6.250;2023-04-06T00:22:05;16.60;;;9.68;;
16665;SDS011;8446;50.998;6.250;2023-04-06T00:24:32;18.67;;;8.70;;
16665;SDS011;8446;50.998;6.250;2023-04-06T00:26:58;17.20;;;10.18;;
16665;SDS011;8446;50.998;6.250;2023-04-06T00:29:27;16.23;;;8.60;;
16665;SDS011;8446;50.998;6.250;2023-04-06T00:31:54;12.57;;;8.00;;
16665;SDS011;8446;50.998;6.250;2023-04-06T00:34:21;16.67;;;7.90;;
16665;SDS011;8446;50.998;6.250;2023-04-06T00:36:47;13.98;;;8.65;;
16665;SDS011;8446;50.998;6.250;2023-04-06T00:39:14;16.45;;;9.43;;
16665;SDS011;8446;50.998;6.250;2023-04-06T00:41:42;17.13;;;7.60;;
16665;SDS011;8446;50.998;6.250;2023-04-06T00:44:13;17.95;;;9.82;;
16665;SDS011;8446;50.998;6.250;2023-04-06T00:46:41;20.33;;;8.40;;
16665;SDS011;8446;50.998;6.250;2023-04-06T00:49:08;18.90;;;9.45;;
16665;SDS011;8446;50.998;6.250;2023-04-06T00:51:35;15.73;;;9.10;;
16665;SDS011;8446;50.998;6.250;2023-04-06T00:54:02;16.55;;;9.23;;
16665;SDS011;8446;50.998;6.250;2023-04-06T00:56:29;18.95;;;8.23;;
16665;SDS011;8446;50.998;6.250;2023-04-06T00:58:56;15.85;;;8.82;;
16665;SDS011;8446;50.998;6.250;2023-04-06T01:01:23;18.13;;;8.82;;
16665;SDS011;8446;50.998;6.250;2023-04-06T01:03:51;17.10;;;8.73;;
16665;SDS011;8446;50.998;6.250;2023-04-06T01:06:19;13.48;;;8.38;;
16665;SDS011;8446;50.998;6.250;2023-04-06T01:08:46;15.75;;;8.20;;
16665;SDS011;8446;50.998;6.250;2023-04-06T01:11:13;14.93;;;8.23;;
16665;SDS011;8446;50.998;6.250;2023-04-06T01:13:40;23.13;;;8.18;;
16665;SDS011;8446;50.998;6.250;2023-04-06T01:16:06;15.70;;;8.38;;
16665;SDS011;8446;50.998;6.250;2023-04-06T01:18:34;20.23;;;9.02;;
16665;SDS011;8446;50.998;6.250;2023-04-06T01:21:02;16.50;;;8.63;;
16665;SDS011;8446;50.998;6.250;2023-04-06T01:23:31;16.80;;;8.95;;
16665;SDS011;8446;50.998;6.250;2023-04-06T01:25:57;13.55;;;9.73;;
16665;SDS011;8446;50.998;6.250;2023-04-06T01:28:24;16.83;;;8.75;;
16665;SDS011;8446;50.998;6.250;2023-04-06T01:30:51;17.08;;;8.77;;
16665;SDS011;8446;50.998;6.250;2023-04-06T01:33:18;19.25;;;9.73;;
16665;SDS011;8446;50.998;6.250;2023-04-06T01:35:45;20.13;;;9.70;;
16665;SDS011;8446;50.998;6.250;2023-04-06T01:38:11;18.95;;;8.05;;
16665;SDS011;8446;50.998;6.250;2023-04-06T01:40:40;20.77;;;8.35;;
16665;SDS011;8446;50.998;6.250;2023-04-06T01:43:06;17.10;;;8.73;;
16665;SDS011;8446;50.998;6.250;2023-04-06T01:45:33;17.75;;;9.25;;
16665;SDS011;8446;50.998;6.250;2023-04-06T01:48:00;16.70;;;8.30;;
16665;SDS011;8446;50.998;6.250;2023-04-06T01:50:27;13.90;;;8.02;;
16665;SDS011;8446;50.998;6.250;2023-04-06T01:52:54;15.55;;;8.57;;
16665;SDS011;8446;50.998;6.250;2023-04-06T01:55:21;19.60;;;8.75;;
16665;SDS011;8446;50.998;6.250;2023-04-06T01:57:49;18.35;;;8.20;;
16665;SDS011;8446;50.998;6.250;2023-04-06T02:00:16;20.35;;;8.20;;
16665;SDS011;8446;50.998;6.250;2023-04-06T02:02:43;15.30;;;8.48;;
16665;SDS011;8446;50.998;6.250;2023-04-06T02:05:10;14.65;;;7.70;;
16665;SDS011;8446;50.998;6.250;2023-04-06T02:07:37;19.88;;;9.80;;
16665;SDS011;8446;50.998;6.250;2023-04-06T02:10:04;15.45;;;8.18;;
16665;SDS011;8446;50.998;6.250;2023-04-06T02:12:38;13.00;;;6.95;;
16665;SDS011;8446;50.998;6.250;2023-04-06T02:15:06;20.25;;;8.23;;
16665;SDS011;8446;50.998;6.250;2023-04-06T02:17:34;16.27;;;8.27;;
16665;SDS011;8446;50.998;6.250;2023-04-06T02:20:01;16.35;;;7.60;;
16665;SDS011;8446;50.998;6.250;2023-04-06T02:22:28;16.35;;;8.55;;
16665;SDS011;8446;50.998;6.250;2023-04-06T02:24:55;15.05;;;7.60;;
16665;SDS011;8446;50.998;6.250;2023-04-06T02:27:21;11.93;;;7.05;;
16665;SDS011;8446;50.998;6.250;2023-04-06T02:29:48;12.70;;;7.15;;
16665;SDS011;8446;50.998;6.250;2023-04-06T02:32:17;11.43;;;7.00;;
16665;SDS011;8446;50.998;6.250;2023-04-06T02:34:43;13.40;;;7.88;;
16665;SDS011;8446;50.998;6.250;2023-04-06T02:37:10;26.73;;;8.90;;
16665;SDS011;8446;50.998;6.250;2023-04-06T02:39:37;18.13;;;9.35;;
16665;SDS011;8446;50.998;6.250;2023-04-06T02:42:04;16.75;;;7.65;;
16665;SDS011;8446;50.998;6.250;2023-04-06T02:44:30;17.05;;;8.40;;
16665;SDS011;8446;50.998;6.250;2023-04-06T02:46:57;16.80;;;8.90;;
16665;SDS011;8446;50.998;6.250;2023-04-06T02:49:25;16.48;;;7.82;;
16665;SDS011;8446;50.998;6.250;2023-04-06T02:51:52;15.68;;;7.70;;
16665;SDS011;8446;50.998;6.250;2023-04-06T02:54:19;18.30;;;9.20;;
16665;SDS011;8446;50.998;6.250;2023-04-06T02:56:46;23.35;;;9.40;;
16665;SDS011;8446;50.998;6.250;2023-04-06T02:59:12;14.52;;;7.93;;
16665;SDS011;8446;50.998;6.250;2023-04-06T03:01:39;23.85;;;8.73;;
16665;SDS011;8446;50.998;6.250;2023-04-06T03:04:06;28.50;;;7.80;;
16665;SDS011;8446;50.998;6.250;2023-04-06T03:06:34;15.05;;;7.80;;
16665;SDS011;8446;50.998;6.250;2023-04-06T03:09:01;15.90;;;8.60;;
16665;SDS011;8446;50.998;6.250;2023-04-06T03:11:28;22.98;;;7.93;;
16665;SDS011;8446;50.998;6.250;2023-04-06T03:13:55;17.42;;;8.80;;
16665;SDS011;8446;50.998;6.250;2023-04-06T03:16:22;21.23;;;9.35;;
16665;SDS011;8446;50.998;6.250;2023-04-06T03:18:49;12.43;;;7.22;;
16665;SDS011;8446;50.998;6.250;2023-04-06T03:21:15;15.27;;;8.30;;
16665;SDS011;8446;50.998;6.250;2023-04-06T03:23:45;12.50;;;6.97;;
16665;SDS011;8446;50.998;6.250;2023-04-06T03:26:14;21.52;;;9.02;;
16665;SDS011;8446;50.998;6.250;2023-04-06T03:28:41;15.40;;;9.10;;
16665;SDS011;8446;50.998;6.250;2023-04-06T03:31:08;15.35;;;8.60;;
16665;SDS011;8446;50.998;6.250;2023-04-06T03:33:34;17.77;;;8.77;;
16665;SDS011;8446;50.998;6.250;2023-04-06T03:36:01;22.38;;;9.13;;
16665;SDS011;8446;50.998;6.250;2023-04-06T03:38:29;16.00;;;8.15;;
16665;SDS011;8446;50.998;6.250;2023-04-06T03:40:57;15.10;;;8.48;;
16665;SDS011;8446;50.998;6.250;2023-04-06T03:43:23;18.15;;;8.57;;
16665;SDS011;8446;50.998;6.250;2023-04-06T03:45:50;19.13;;;8.75;;
16665;SDS011;8446;50.998;6.250;2023-04-06T03:48:17;21.98;;;8.80;;
16665;SDS011;8446;50.998;6.250;2023-04-06T03:50:44;37.63;;;10.35;;
16665;SDS011;8446;50.998;6.250;2023-04-06T03:53:11;20.17;;;9.00;;
16665;SDS011;8446;50.998;6.250;2023-04-06T03:55:37;19.55;;;10.10;;
16665;SDS011;8446;50.998;6.250;2023-04-06T03:58:06;18.02;;;9.30;;
16665;SDS011;8446;50.998;6.250;2023-04-06T04:00:32;21.75;;;10.10;;
16665;SDS011;8446;50.998;6.250;2023-04-06T04:02:59;18.77;;;9.90;;
16665;SDS011;8446;50.998;6.250;2023-04-06T04:05:27;22.60;;;10.23;;
16665;SDS011;8446;50.998;6.250;2023-04-06T04:07:53;18.60;;;8.65;;
16665;SDS011;8446;50.998;6.250;2023-04-06T04:10:20;19.92;;;9.50;;
16665;SDS011;8446;50.998;6.250;2023-04-06T04:12:47;17.88;;;8.25;;
16665;SDS011;8446;50.998;6.250;2023-04-06T04:15:15;18.17;;;8.60;;
16665;SDS011;8446;50.998;6.250;2023-04-06T04:17:42;13.95;;;8.88;;
16665;SDS011;8446;50.998;6.250;2023-04-06T04:20:11;19.95;;;8.82;;
16665;SDS011;8446;50.998;6.250;2023-04-06T04:22:38;18.17;;;8.63;;
16665;SDS011;8446;50.998;6.250;2023-04-06T04:25:05;23.90;;;9.75;;
16665;SDS011;8446;50.998;6.250;2023-04-06T04:27:32;24.20;;;9.88;;
16665;SDS011;8446;50.998;6.250;2023-04-06T04:29:59;20.48;;;9.85;;
16665;SDS011;8446;50.998;6.250;2023-04-06T04:32:27;22.83;;;9.43;;
16665;SDS011;8446;50.998;6.250;2023-04-06T04:34:54;22.25;;;8.13;;
16665;SDS011;8446;50.998;6.250;2023-04-06T04:37:21;16.52;;;8.88;;
16665;SDS011;8446;50.998;6.250;2023-04-06T04:39:48;21.90;;;9.25;;
16665;SDS011;8446;50.998;6.250;2023-04-06T04:42:15;16.58;;;8.80;;
16665;SDS011;8446;50.998;6.250;2023-04-06T04:44:41;20.98;;;9.25;;
16665;SDS011;8446;50.998;6.250;2023-04-06T04:47:08;26.92;;;8.40;;
16665;SDS011;8446;50.998;6.250;2023-04-06T04:49:36;17.02;;;8.10;;
16665;SDS011;8446;50.998;6.250;2023-04-06T04:52:03;15.35;;;8.63;;
16665;SDS011;8446;50.998;6.250;2023-04-06T04:54:30;21.13;;;8.90;;
16665;SDS011;8446;50.998;6.250;2023-04-06T04:56:57;17.27;;;9.25;;
16665;SDS011;8446;50.998;6.250;2023-04-06T04:59:24;18.15;;;7.63;;
16665;SDS011;8446;50.998;6.250;2023-04-06T05:01:50;15.85;;;8.02;;
16665;SDS011;8446;50.998;6.250;2023-04-06T05:04:17;16.00;;;8.55;;
16665;SDS011;8446;50.998;6.250;2023-04-06T05:06:45;18.75;;;10.07;;
16665;SDS011;8446;50.998;6.250;2023-04-06T05:09:12;17.10;;;9.32;;
16665;SDS011;8446;50.998;6.250;2023-04-06T05:11:39;23.95;;;9.73;;
16665;SDS011;8446;50.998;6.250;2023-04-06T05:14:06;20.33;;;9.18;;
16665;SDS011;8446;50.998;6.250;2023-04-06T05:16:33;18.63;;;9.30;;
16665;SDS011;8446;50.998;6.250;2023-04-06T05:19:00;16.33;;;8.95;;
16665;SDS011;8446;50.998;6.250;2023-04-06T05:21:27;20.42;;;8.35;;
16665;SDS011;8446;50.998;6.250;2023-04-06T05:23:56;17.98;;;9.23;;
16665;SDS011;8446;50.998;6.250;2023-04-06T05:26:23;19.80;;;9.70;;
16665;SDS011;8446;50.998;6.250;2023-04-06T05:28:50;22.83;;;9.20;;
16665;SDS011;8446;50.998;6.250;2023-04-06T05:31:17;25.77;;;9.63;;
16665;SDS011;8446;50.998;6.250;2023-04-06T05:33:44;21.05;;;10.00;;
16665;SDS011;8446;50.998;6.250;2023-04-06T05:36:11;22.80;;;9.07;;
16665;SDS011;8446;50.998;6.250;2023-04-06T05:38:38;19.98;;;10.18;;
16665;SDS011;8446;50.998;6.250;2023-04-06T05:41:06;17.67;;;9.35;;
16665;SDS011;8446;50.998;6.250;2023-04-06T05:43:33;16.65;;;8.60;;
16665;SDS011;8446;50.998;6.250;2023-04-06T05:45:59;17.90;;;8.60;;
16665;SDS011;8446;50.998;6.250;2023-04-06T05:48:26;19.58;;;10.80;;
16665;SDS011;8446;50.998;6.250;2023-04-06T05:50:53;17.80;;;9.77;;
16665;SDS011;8446;50.998;6.250;2023-04-06T05:53:20;19.45;;;9.60;;
16665;SDS011;8446;50.998;6.250;2023-04-06T05:55:47;18.90;;;10.02;;
16665;SDS011;8446;50.998;6.250;2023-04-06T05:58:15;23.77;;;10.50;;
16665;SDS011;8446;50.998;6.250;2023-04-06T06:00:43;21.08;;;9.38;;
16665;SDS011;8446;50.998;6.250;2023-04-06T06:03:10;20.27;;;10.07;;
16665;SDS011;8446;50.998;6.250;2023-04-06T06:05:38;18.90;;;10.30;;
16665;SDS011;8446;50.998;6.250;2023-04-06T06:08:05;20.17;;;9.73;;
16665;SDS011;8446;50.998;6.250;2023-04-06T06:10:32;20.65;;;10.48;;
16665;SDS011;8446;50.998;6.250;2023-04-06T06:12:58;23.42;;;10.32;;
16665;SDS011;8446;50.998;6.250;2023-04-06T06:15:27;20.67;;;10.00;;
16665;SDS011;8446;50.998;6.250;2023-04-06T06:17:53;18.63;;;10.48;;
16665;SDS011;8446;50.998;6.250;2023-04-06T06:20:20;22.73;;;10.40;;
16665;SDS011;8446;50.998;6.250;2023-04-06T06:22:47;22.05;;;10.80;;
16665;SDS011;8446;50.998;6.250;2023-04-06T06:25:14;21.90;;;9.48;;
16665;SDS011;8446;50.998;6.250;2023-04-06T06:27:41;19.15;;;9.65;;
16665;SDS011;8446;50.998;6.250;2023-04-06T06:30:08;22.88;;;11.13;;
16665;SDS011;8446;50.998;6.250;2023-04-06T06:32:37;16.10;;;9.70;;
16665;SDS011;8446;50.998;6.250;2023-04-06T06:35:04;17.88;;;9.80;;
16665;SDS011;8446;50.998;6.250;2023-04-06T06:37:31;20.63;;;9.90;;
16665;SDS011;8446;50.998;6.250;2023-04-06T06:39:57;19.80;;;9.57;;
16665;SDS011;8446;50.998;6.250;2023-04-06T06:42:24;21.17;;;9.23;;
16665;SDS011;8446;50.998;6.250;2023-04-06T06:44:51;29.08;;;10.43;;
16665;SDS011;8446;50.998;6.250;2023-04-06T06:47:18;21.15;;;10.10;;
16665;SDS011;8446;50.998;6.250;2023-04-06T06:49:46;19.42;;;11.15;;
16665;SDS011;8446;50.998;6.250;2023-04-06T06:52:13;16.60;;;10.95;;
16665;SDS011;8446;50.998;6.250;2023-04-06T06:54:40;22.35;;;9.95;;
16665;SDS011;8446;50.998;6.250;2023-04-06T06:57:06;20.15;;;10.20;;
16665;SDS011;8446;50.998;6.250;2023-04-06T06:59:33;30.67;;;9.90;;
16665;SDS011;8446;50.998;6.250;2023-04-06T07:02:00;19.58;;;10.70;;
16665;SDS011;8446;50.998;6.250;2023-04-06T07:04:27;22.08;;;10.10;;
16665;SDS011;8446;50.998;6.250;2023-04-06T07:06:55;20.70;;;10.70;;
16665;SDS011;8446;50.998;6.250;2023-04-06T07:09:22;18.85;;;10.15;;
16665;SDS011;8446;50.998;6.250;2023-04-06T07:11:49;22.35;;;9.98;;
16665;SDS011;8446;50.998;6.250;2023-04-06T07:14:15;24.45;;;11.88;;
16665;SDS011;8446;50.998;6.250;2023-04-06T07:16:42;21.05;;;10.35;;
16665;SDS011;8446;50.998;6.250;2023-04-06T07:19:11;18.05;;;9.82;;
16665;SDS011;8446;50.998;6.250;2023-04-06T07:21:38;16.73;;;9.57;;
16665;SDS011;8446;50.998;6.250;2023-04-06T07:24:06;19.38;;;10.20;;
16665;SDS011;8446;50.998;6.250;2023-04-06T07:26:33;18.20;;;9.48;;
16665;SDS011;8446;50.998;6.250;2023-04-06T07:29:00;19.13;;;10.00;;
16665;SDS011;8446;50.998;6.250;2023-04-06T07:31:27;17.40;;;10.05;;
16665;SDS011;8446;50.998;6.250;2023-04-06T07:33:54;20.15;;;9.05;;
16665;SDS011;8446;50.998;6.250;2023-04-06T07:36:20;20.05;;;10.43;;
16665;SDS011;8446;50.998;6.250;2023-04-06T07:38:47;27.15;;;9.82;;
16665;SDS011;8446;50.998;6.250;2023-04-06T07:41:15;19.50;;;9.43;;
16665;SDS011;8446;50.998;6.250;2023-04-06T07:43:42;19.05;;;9.07;;
16665;SDS011;8446;50.998;6.250;2023-04-06T07:46:09;21.63;;;9.20;;
16665;SDS011;8446;50.998;6.250;2023-04-06T07:48:36;18.35;;;9.52;;
16665;SDS011;8446;50.998;6.250;2023-04-06T07:51:04;22.65;;;9.40;;
16665;SDS011;8446;50.998;6.250;2023-04-06T07:53:31;16.15;;;9.05;;
16665;SDS011;8446;50.998;6.250;2023-04-06T07:55:58;21.60;;;8.65;;
16665;SDS011;8446;50.998;6.250;2023-04-06T07:58:26;33.13;;;9.70;;
16665;SDS011;8446;50.998;6.250;2023-04-06T08:00:53;18.75;;;10.25;;
16665;SDS011;8446;50.998;6.250;2023-04-06T08:03:20;17.75;;;9.05;;
16665;SDS011;8446;50.998;6.250;2023-04-06T08:05:50;18.23;;;10.47;;
16665;SDS011;8446;50.998;6.250;2023-04-06T08:08:17;17.30;;;9.67;;
16665;SDS011;8446;50.998;6.250;2023-04-06T08:10:44;17.87;;;9.43;;
16665;SDS011;8446;50.998;6.250;2023-04-06T08:13:11;18.37;;;10.13;;
16665;SDS011;8446;50.998;6.250;2023-04-06T08:15:39;18.40;;;9.97;;
16665;SDS011;8446;50.998;6.250;2023-04-06T08:18:06;22.70;;;11.00;;
16665;SDS011;8446;50.998;6.250;2023-04-06T08:20:34;24.20;;;10.57;;
16665;SDS011;8446;50.998;6.250;2023-04-06T08:23:00;19.53;;;10.43;;
16665;SDS011;8446;50.998;6.250;2023-04-06T08:25:27;27.60;;;10.67;;
16665;SDS011;8446;50.998;6.250;2023-04-06T08:27:55;21.97;;;10.40;;
16665;SDS011;8446;50.998;6.250;2023-04-06T08:30:22;17.10;;;9.87;;
16665;SDS011;8446;50.998;6.250;2023-04-06T08:32:50;17.97;;;9.77;;
16665;SDS011;8446;50.998;6.250;2023-04-06T08:35:17;18.70;;;10.00;;
16665;SDS011;8446;50.998;6.250;2023-04-06T08:37:44;24.67;;;10.07;;
16665;SDS011;8446;50.998;6.250;2023-04-06T08:40:11;22.13;;;10.60;;
16665;SDS011;8446;50.998;6.250;2023-04-06T08:42:39;18.70;;;9.30;;
16665;SDS011;8446;50.998;6.250;2023-04-06T08:45:10;22.73;;;10.40;;
16665;SDS011;8446;50.998;6.250;2023-04-06T08:47:37;23.83;;;9.47;;
16665;SDS011;8446;50.998;6.250;2023-04-06T08:50:06;15.53;;;9.67;;
16665;SDS011;8446;50.998;6.250;2023-04-06T08:52:36;16.70;;;9.17;;
16665;SDS011;8446;50.998;6.250;2023-04-06T08:55:04;19.07;;;9.77;;
16665;SDS011;8446;50.998;6.250;2023-04-06T08:57:32;15.37;;;8.33;;
16665;SDS011;8446;50.998;6.250;2023-04-06T09:00:02;16.00;;;8.33;;
16665;SDS011;8446;50.998;6.250;2023-04-06T09:02:30;19.23;;;8.97;;
16665;SDS011;8446;50.998;6.250;2023-04-06T09:04:57;14.90;;;8.57;;
16665;SDS011;8446;50.998;6.250;2023-04-06T09:07:26;13.73;;;9.00;;
16665;SDS011;8446;50.998;6.250;2023-04-06T09:09:54;16.30;;;9.73;;
16665;SDS011;8446;50.998;6.250;2023-04-06T09:12:24;22.53;;;8.37;;
16665;SDS011;8446;50.998;6.250;2023-04-06T09:14:52;17.43;;;9.03;;
16665;SDS011;8446;50.998;6.250;2023-04-06T09:17:21;22.70;;;8.80;;
16665;SDS011;8446;50.998;6.250;2023-04-06T09:19:48;18.90;;;9.10;;
16665;SDS011;8446;50.998;6.250;2023-04-06T09:22:15;16.43;;;8.57;;
16665;SDS011;8446;50.998;6.250;2023-04-06T09:24:44;20.70;;;9.83;;
16665;SDS011;8446;50.998;6.250;2023-04-06T09:27:13;21.10;;;9.27;;
16665;SDS011;8446;50.998;6.250;2023-04-06T09:29:40;23.30;;;8.80;;
16665;SDS011;8446;50.998;6.250;2023-04-06T09:32:08;18.00;;;9.97;;
16665;SDS011;8446;50.998;6.250;2023-04-06T09:34:36;17.13;;;9.37;;
16665;SDS011;8446;50.998;6.250;2023-04-06T09:37:11;16.23;;;8.93;;
16665;SDS011;8446;50.998;6.250;2023-04-06T09:39:39;16.33;;;8.30;;
16665;SDS011;8446;50.998;6.250;2023-04-06T09:42:07;16.83;;;7.77;;
16665;SDS011;8446;50.998;6.250;2023-04-06T09:44:34;14.50;;;7.33;;
16665;SDS011;8446;50.998;6.250;2023-04-06T09:47:01;13.90;;;7.00;;
16665;SDS011;8446;50.998;6.250;2023-04-06T09:49:32;13.20;;;6.97;;
16665;SDS011;8446;50.998;6.250;2023-04-06T09:52:00;18.57;;;7.80;;
16665;SDS011;8446;50.998;6.250;2023-04-06T09:54:29;14.10;;;7.53;;
16665;SDS011;8446;50.998;6.250;2023-04-06T09:56:58;19.40;;;7.90;;
16665;SDS011;8446;50.998;6.250;2023-04-06T09:59:36;21.57;;;8.37;;
16665;SDS011;8446;50.998;6.250;2023-04-06T10:02:12;15.27;;;7.60;;
16665;SDS011;8446;50.998;6.250;2023-04-06T10:04:44;18.53;;;7.97;;
16665;SDS011;8446;50.998;6.250;2023-04-06T10:07:19;15.70;;;7.43;;
16665;SDS011;8446;50.998;6.250;2023-04-06T10:09:46;16.23;;;7.10;;
16665;SDS011;8446;50.998;6.250;2023-04-06T10:12:15;14.87;;;7.43;;
16665;SDS011;8446;50.998;6.250;2023-04-06T10:14:44;17.90;;;7.87;;
16665;SDS011;8446;50.998;6.250;2023-04-06T10:17:11;18.23;;;7.93;;
16665;SDS011;8446;50.998;6.250;2023-04-06T10:19:39;18.07;;;7.70;;
16665;SDS011;8446;50.998;6.250;2023-04-06T10:22:09;22.60;;;7.73;;
16665;SDS011;8446;50.998;6.250;2023-04-06T10:24:38;24.60;;;9.67;;
16665;SDS011;8446;50.998;6.250;2023-04-06T10:27:05;16.20;;;7.83;;
16665;SDS011;8446;50.998;6.250;2023-04-06T10:29:45;19.97;;;8.73;;
16665;SDS011;8446;50.998;6.250;2023-04-06T10:32:13;13.30;;;7.70;;
16665;SDS011;8446;50.998;6.250;2023-04-06T10:34:40;14.03;;;7.20;;
16665;SDS011;8446;50.998;6.250;2023-04-06T10:37:11;12.57;;;6.17;;
16665;SDS011;8446;50.998;6.250;2023-04-06T10:39:49;14.83;;;7.00;;
16665;SDS011;8446;50.998;6.250;2023-04-06T10:42:23;15.37;;;7.30;;
16665;SDS011;8446;50.998;6.250;2023-04-06T10:44:51;11.63;;;6.97;;
16665;SDS011;8446;50.998;6.250;2023-04-06T10:47:18;15.77;;;8.03;;
16665;SDS011;8446;50.998;6.250;2023-04-06T10:49:45;13.40;;;7.57;;
16665;SDS011;8446;50.998;6.250;2023-04-06T10:52:12;13.07;;;7.53;;
16665;SDS011;8446;50.998;6.250;2023-04-06T10:54:40;14.10;;;7.63;;
16665;SDS011;8446;50.998;6.250;2023-04-06T10:57:08;11.77;;;5.80;;
16665;SDS011;8446;50.998;6.250;2023-04-06T10:59:35;14.20;;;5.90;;
16665;SDS011;8446;50.998;6.250;2023-04-06T11:02:03;13.07;;;6.23;;
16665;SDS011;8446;50.998;6.250;2023-04-06T11:04:31;11.70;;;6.13;;
16665;SDS011;8446;50.998;6.250;2023-04-06T11:06:58;11.23;;;5.97;;
16665;SDS011;8446;50.998;6.250;2023-04-06T11:09:25;9.90;;;5.70;;
16665;SDS011;8446;50.998;6.250;2023-04-06T11:11:52;9.60;;;5.73;;
16665;SDS011;8446;50.998;6.250;2023-04-06T11:14:21;16.67;;;6.33;;
16665;SDS011;8446;50.998;6.250;2023-04-06T11:16:48;13.00;;;5.83;;
16665;SDS011;8446;50.998;6.250;2023-04-06T11:19:16;9.57;;;6.20;;
16665;SDS011;8446;50.998;6.250;2023-04-06T11:21:43;16.90;;;6.23;;
16665;SDS011;8446;50.998;6.250;2023-04-06T11:24:13;7.47;;;4.23;;
16665;SDS011;8446;50.998;6.250;2023-04-06T11:26:41;6.03;;;3.43;;
16665;SDS011;8446;50.998;6.250;2023-04-06T11:29:10;4.00;;;2.70;;
16665;SDS011;8446;50.998;6.250;2023-04-06T11:31:40;4.03;;;3.43;;
16665;SDS011;8446;50.998;6.250;2023-04-06T11:34:09;5.47;;;3.20;;
16665;SDS011;8446;50.998;6.250;2023-04-06T11:36:40;5.50;;;3.50;;
16665;SDS011;8446;50.998;6.250;2023-04-06T11:39:08;5.87;;;3.27;;
16665;SDS011;8446;50.998;6.250;2023-04-06T11:41:35;5.77;;;3.20;;
16665;SDS011;8446;50.998;6.250;2023-04-06T11:44:02;5.10;;;4.00;;
16665;SDS011;8446;50.998;6.250;2023-04-06T11:46:29;9.07;;;3.70;;
16665;SDS011;8446;50.998;6.250;2023-04-06T11:48:57;7.73;;;4.37;;
16665;SDS011;8446;50.998;6.250;2023-04-06T11:51:25;7.53;;;4.90;;
16665;SDS011;8446;50.998;6.250;2023-04-06T11:53:54;8.63;;;5.03;;
16665;SDS011;8446;50.998;6.250;2023-04-06T11:56:24;18.50;;;5.10;;
16665;SDS011;8446;50.998;6.250;2023-04-06T11:58:52;9.07;;;5.07;;
16665;SDS011;8446;50.998;6.250;2023-04-06T12:01:20;10.50;;;6.00;;
16665;SDS011;8446;50.998;6.250;2023-04-06T12:03:46;10.57;;;6.03;;
16665;SDS011;8446;50.998;6.250;2023-04-06T12:06:13;11.50;;;6.10;;
16665;SDS011;8446;50.998;6.250;2023-04-06T12:08:40;12.13;;;5.70;;
16665;SDS011;8446;50.998;6.250;2023-04-06T12:11:08;11.03;;;5.97;;
16665;SDS011;8446;50.998;6.250;2023-04-06T12:13:35;10.87;;;4.97;;
16665;SDS011;8446;50.998;6.250;2023-04-06T12:16:02;15.33;;;6.87;;
16665;SDS011;8446;50.998;6.250;2023-04-06T12:18:29;10.40;;;6.30;;
16665;SDS011;8446;50.998;6.250;2023-04-06T12:20:56;12.50;;;6.40;;
16665;SDS011;8446;50.998;6.250;2023-04-06T12:23:23;15.63;;;6.90;;
16665;SDS011;8446;50.998;6.250;2023-04-06T12:25:50;15.53;;;6.30;;
16665;SDS011;8446;50.998;6.250;2023-04-06T12:28:18;13.00;;;6.03;;
16665;SDS011;8446;50.998;6.250;2023-04-06T12:30:48;23.93;;;8.17;;
16665;SDS011;8446;50.998;6.250;2023-04-06T12:33:15;11.40;;;5.93;;
16665;SDS011;8446;50.998;6.250;2023-04-06T12:35:41;9.57;;;6.50;;
16665;SDS011;8446;50.998;6.250;2023-04-06T12:38:08;14.90;;;7.30;;
16665;SDS011;8446;50.998;6.250;2023-04-06T12:40:36;12.03;;;6.60;;
16665;SDS011;8446;50.998;6.250;2023-04-06T12:43:03;20.27;;;6.27;;
16665;SDS011;8446;50.998;6.250;2023-04-06T12:45:32;8.23;;;5.83;;
16665;SDS011;8446;50.998;6.250;2023-04-06T12:47:58;15.07;;;6.17;;
16665;SDS011;8446;50.998;6.250;2023-04-06T12:50:26;12.23;;;7.27;;
16665;SDS011;8446;50.998;6.250;2023-04-06T12:52:52;12.93;;;7.10;;
16665;SDS011;8446;50.998;6.250;2023-04-06T12:55:19;9.10;;;6.07;;
16665;SDS011;8446;50.998;6.250;2023-04-06T12:57:46;14.50;;;7.20;;
16665;SDS011;8446;50.998;6.250;2023-04-06T13:00:14;12.40;;;6.63;;
16665;SDS011;8446;50.998;6.250;2023-04-06T13:02:42;12.87;;;7.33;;
16665;SDS011;8446;50.998;6.250;2023-04-06T13:05:12;15.70;;;8.33;;
16665;SDS011;8446;50.998;6.250;2023-04-06T13:07:39;10.70;;;6.67;;
16665;SDS011;8446;50.998;6.250;2023-04-06T13:10:07;14.00;;;7.77;;
16665;SDS011;8446;50.998;6.250;2023-04-06T13:12:34;13.60;;;6.73;;
16665;SDS011;8446;50.998;6.250;2023-04-06T13:15:01;15.80;;;7.07;;
16665;SDS011;8446;50.998;6.250;2023-04-06T13:17:28;10.87;;;6.20;;
16665;SDS011;8446;50.998;6.250;2023-04-06T13:19:57;14.10;;;6.60;;
16665;SDS011;8446;50.998;6.250;2023-04-06T13:22:24;12.07;;;6.40;;
16665;SDS011;8446;50.998;6.250;2023-04-06T13:24:51;10.77;;;5.97;;
16665;SDS011;8446;50.998;6.250;2023-04-06T13:27:18;12.13;;;6.27;;
16665;SDS011;8446;50.998;6.250;2023-04-06T13:29:45;10.73;;;6.43;;
16665;SDS011;8446;50.998;6.250;2023-04-06T13:32:11;14.13;;;6.37;;
16665;SDS011;8446;50.998;6.250;2023-04-06T13:34:38;11.50;;;6.70;;
16665;SDS011;8446;50.998;6.250;2023-04-06T13:37:11;13.03;;;7.57;;
16665;SDS011;8446;50.998;6.250;2023-04-06T13:39:38;11.37;;;6.77;;
16665;SDS011;8446;50.998;6.250;2023-04-06T13:42:04;15.17;;;7.77;;
16665;SDS011;8446;50.998;6.250;2023-04-06T13:44:31;12.30;;;7.63;;
16665;SDS011;8446;50.998;6.250;2023-04-06T13:46:58;15.07;;;7.37;;
16665;SDS011;8446;50.998;6.250;2023-04-06T13:49:25;16.37;;;7.97;;
16665;SDS011;8446;50.998;6.250;2023-04-06T13:51:52;12.93;;;8.17;;
16665;SDS011;8446;50.998;6.250;2023-04-06T13:54:20;14.70;;;7.20;;
16665;SDS011;8446;50.998;6.250;2023-04-06T13:56:47;11.70;;;7.27;;
16665;SDS011;8446;50.998;6.250;2023-04-06T13:59:14;13.00;;;7.60;;
16665;SDS011;8446;50.998;6.250;2023-04-06T14:01:41;18.40;;;8.13;;
16665;SDS011;8446;50.998;6.250;2023-04-06T14:04:08;12.23;;;7.80;;
16665;SDS011;8446;50.998;6.250;2023-04-06T14:06:34;13.67;;;7.83;;
16665;SDS011;8446;50.998;6.250;2023-04-06T14:09:03;16.30;;;8.40;;
16665;SDS011;8446;50.998;6.250;2023-04-06T14:11:31;15.70;;;6.57;;
16665;SDS011;8446;50.998;6.250;2023-04-06T14:13:58;16.80;;;8.10;;
16665;SDS011;8446;50.998;6.250;2023-04-06T14:16:25;14.20;;;8.00;;
16665;SDS011;8446;50.998;6.250;2023-04-06T14:18:52;16.87;;;8.37;;
16665;SDS011;8446;50.998;6.250;2023-04-06T14:21:20;17.40;;;7.40;;
16665;SDS011;8446;50.998;6.250;2023-04-06T14:23:46;11.57;;;7.20;;
16665;SDS011;8446;50.998;6.250;2023-04-06T14:26:13;14.90;;;7.20;;
16665;SDS011;8446;50.998;6.250;2023-04-06T14:28:41;12.67;;;6.70;;
16665;SDS011;8446;50.998;6.250;2023-04-06T14:31:12;9.20;;;5.80;;
16665;SDS011;8446;50.998;6.250;2023-04-06T14:33:40;11.20;;;5.90;;
16665;SDS011;8446;50.998;6.250;2023-04-06T14:36:08;9.20;;;5.40;;
16665;SDS011;8446;50.998;6.250;2023-04-06T14:38:35;7.30;;;5.27;;
16665;SDS011;8446;50.998;6.250;2023-04-06T14:41:02;8.90;;;5.60;;
16665;SDS011;8446;50.998;6.250;2023-04-06T14:43:29;9.27;;;5.13;;
16665;SDS011;8446;50.998;6.250;2023-04-06T14:46:00;23.37;;;6.27;;
16665;SDS011;8446;50.998;6.250;2023-04-06T14:48:28;8.00;;;4.53;;